sensor_id;sensor_type;location;lat;lon;timestamp;P1;durP1;ratioP1;P2;durP2;ratioP2
15635;SDS011;7917;50.818;6.972;2023-07-31T00:01:00;8.35;;;3.42;;
15635;SDS011;7917;50.818;6.972;2023-07-31T00:03:27;5.40;;;3.60;;
15635;SDS011;7917;50.818;6.972;2023-07-31T00:05:53;6.88;;;3.88;;
15635;SDS011;7917;50.818;6.972;2023-07-31T00:08:21;10.50;;;3.70;;
15635;SDS011;7917;50.818;6.972;2023-07-31T00:10:50;7.97;;;3.70;;
15635;SDS011;7917;50.818;6.972;2023-07-31T00:13:17;7.03;;;3.35;;
15635;SDS011;7917;50.818;6.972;2023-07-31T00:15:44;7.13;;;4.07;;
15635;SDS011;7917;50.818;6.972;2023-07-31T00:18:11;8.65;;;3.72;;
15635;SDS011;7917;50.818;6.972;2023-07-31T00:20:37;8.23;;;3.75;;
15635;SDS011;7917;50.818;6.972;2023-07-31T00:23:04;8.35;;;3.55;;
15635;SDS011;7917;50.818;6.972;2023-07-31T00:25:31;7.55;;;3.30;;
15635;SDS011;7917;50.818;6.972;2023-07-31T00:27:57;6.60;;;3.83;;
15635;SDS011;7917;50.818;6.972;2023-07-31T00:30:24;11.98;;;3.55;;
15635;SDS011;7917;50.818;6.972;2023-07-31T00:32:53;7.20;;;3.00;;
15635;SDS011;7917;50.818;6.972;2023-07-31T00:35:19;5.55;;;2.70;;
15635;SDS011;7917;50.818;6.972;2023-07-31T00:37:46;4.82;;;2.67;;
15635;SDS011;7917;50.818;6.972;2023-07-31T00:40:12;4.65;;;2.78;;
15635;SDS011;7917;50.818;6.972;2023-07-31T00:42:40;3.67;;;2.35;;
15635;SDS011;7917;50.818;6.972;2023-07-31T00:45:07;4.53;;;2.47;;
15635;SDS011;7917;50.818;6.972;2023-07-31T00:47:34;7.88;;;2.80;;
15635;SDS011;7917;50.818;6.972;2023-07-31T00:50:01;5.57;;;2.47;;
15635;SDS011;7917;50.818;6.972;2023-07-31T00:52:27;4.57;;;2.70;;
15635;SDS011;7917;50.818;6.972;2023-07-31T00:54:54;7.10;;;2.67;;
15635;SDS011;7917;50.818;6.972;2023-07-31T00:57:21;5.15;;;2.60;;
15635;SDS011;7917;50.818;6.972;2023-07-31T00:59:48;10.05;;;3.33;;
15635;SDS011;7917;50.818;6.972;2023-07-31T01:02:15;8.23;;;3.25;;
15635;SDS011;7917;50.818;6.972;2023-07-31T01:04:42;4.15;;;2.30;;
15635;SDS011;7917;50.818;6.972;2023-07-31T01:07:11;7.40;;;2.70;;
15635;SDS011;7917;50.818;6.972;2023-07-31T01:09:43;5.47;;;2.95;;
15635;SDS011;7917;50.818;6.972;2023-07-31T01:12:14;5.13;;;2.95;;
15635;SDS011;7917;50.818;6.972;2023-07-31T01:14:44;4.63;;;2.60;;
15635;SDS011;7917;50.818;6.972;2023-07-31T01:17:17;6.70;;;2.35;;
15635;SDS011;7917;50.818;6.972;2023-07-31T01:19:45;4.50;;;2.40;;
15635;SDS011;7917;50.818;6.972;2023-07-31T01:22:16;8.43;;;2.72;;
15635;SDS011;7917;50.818;6.972;2023-07-31T01:24:59;3.47;;;2.60;;
15635;SDS011;7917;50.818;6.972;2023-07-31T01:27:37;4.72;;;2.78;;
15635;SDS011;7917;50.818;6.972;2023-07-31T01:30:11;5.07;;;2.53;;
15635;SDS011;7917;50.818;6.972;2023-07-31T01:32:42;4.85;;;2.33;;
15635;SDS011;7917;50.818;6.972;2023-07-31T01:35:12;4.30;;;2.15;;
15635;SDS011;7917;50.818;6.972;2023-07-31T01:37:39;6.13;;;2.10;;
15635;SDS011;7917;50.818;6.972;2023-07-31T01:40:06;7.53;;;2.75;;
15635;SDS011;7917;50.818;6.972;2023-07-31T01:42:34;3.60;;;2.10;;
15635;SDS011;7917;50.818;6.972;2023-07-31T01:45:01;5.13;;;2.50;;
15635;SDS011;7917;50.818;6.972;2023-07-31T01:47:27;5.65;;;2.47;;
15635;SDS011;7917;50.818;6.972;2023-07-31T01:49:54;4.55;;;2.22;;
15635;SDS011;7917;50.818;6.972;2023-07-31T01:52:20;8.02;;;2.47;;
15635;SDS011;7917;50.818;6.972;2023-07-31T01:54:47;9.07;;;2.67;;
15635;SDS011;7917;50.818;6.972;2023-07-31T01:57:13;3.42;;;2.28;;
15635;SDS011;7917;50.818;6.972;2023-07-31T01:59:40;7.70;;;2.90;;
15635;SDS011;7917;50.818;6.972;2023-07-31T02:02:08;5.95;;;2.30;;
15635;SDS011;7917;50.818;6.972;2023-07-31T02:04:34;4.28;;;2.38;;
15635;SDS011;7917;50.818;6.972;2023-07-31T02:07:01;5.55;;;2.70;;
15635;SDS011;7917;50.818;6.972;2023-07-31T02:09:27;5.22;;;2.63;;
15635;SDS011;7917;50.818;6.972;2023-07-31T02:11:53;9.00;;;2.78;;
15635;SDS011;7917;50.818;6.972;2023-07-31T02:14:20;5.30;;;2.80;;
15635;SDS011;7917;50.818;6.972;2023-07-31T02:16:47;8.48;;;2.95;;
15635;SDS011;7917;50.818;6.972;2023-07-31T02:19:13;6.18;;;2.58;;
15635;SDS011;7917;50.818;6.972;2023-07-31T02:21:40;5.63;;;3.05;;
15635;SDS011;7917;50.818;6.972;2023-07-31T02:24:06;4.40;;;2.70;;
15635;SDS011;7917;50.818;6.972;2023-07-31T02:26:33;5.07;;;3.00;;
15635;SDS011;7917;50.818;6.972;2023-07-31T02:28:59;6.18;;;3.45;;
15635;SDS011;7917;50.818;6.972;2023-07-31T02:31:26;4.93;;;2.50;;
15635;SDS011;7917;50.818;6.972;2023-07-31T02:33:54;4.40;;;2.33;;
15635;SDS011;7917;50.818;6.972;2023-07-31T02:36:20;7.50;;;3.10;;
15635;SDS011;7917;50.818;6.972;2023-07-31T02:38:46;7.63;;;2.92;;
15635;SDS011;7917;50.818;6.972;2023-07-31T02:41:13;5.45;;;2.97;;
15635;SDS011;7917;50.818;6.972;2023-07-31T02:43:39;5.15;;;3.00;;
15635;SDS011;7917;50.818;6.972;2023-07-31T02:46:06;5.93;;;2.95;;
15635;SDS011;7917;50.818;6.972;2023-07-31T02:48:32;5.43;;;2.97;;
15635;SDS011;7917;50.818;6.972;2023-07-31T02:50:59;8.25;;;3.17;;
15635;SDS011;7917;50.818;6.972;2023-07-31T02:53:26;6.93;;;3.13;;
15635;SDS011;7917;50.818;6.972;2023-07-31T02:55:52;6.72;;;3.35;;
15635;SDS011;7917;50.818;6.972;2023-07-31T02:58:19;6.50;;;2.97;;
15635;SDS011;7917;50.818;6.972;2023-07-31T03:04:07;6.82;;;3.35;;
15635;SDS011;7917;50.818;6.972;2023-07-31T03:06:34;6.82;;;3.30;;
15635;SDS011;7917;50.818;6.972;2023-07-31T03:09:01;6.82;;;3.75;;
15635;SDS011;7917;50.818;6.972;2023-07-31T03:11:27;5.95;;;2.63;;
15635;SDS011;7917;50.818;6.972;2023-07-31T03:13:54;7.22;;;3.22;;
15635;SDS011;7917;50.818;6.972;2023-07-31T03:16:21;6.20;;;3.60;;
15635;SDS011;7917;50.818;6.972;2023-07-31T03:18:48;9.57;;;4.20;;
15635;SDS011;7917;50.818;6.972;2023-07-31T03:21:15;6.18;;;3.00;;
15635;SDS011;7917;50.818;6.972;2023-07-31T03:23:42;7.65;;;3.10;;
15635;SDS011;7917;50.818;6.972;2023-07-31T03:26:09;5.82;;;2.92;;
15635;SDS011;7917;50.818;6.972;2023-07-31T03:28:35;10.07;;;3.58;;
15635;SDS011;7917;50.818;6.972;2023-07-31T03:31:02;5.68;;;3.28;;
15635;SDS011;7917;50.818;6.972;2023-07-31T03:33:28;6.03;;;3.50;;
15635;SDS011;7917;50.818;6.972;2023-07-31T03:35:55;7.45;;;3.17;;
15635;SDS011;7917;50.818;6.972;2023-07-31T03:38:21;8.63;;;3.72;;
15635;SDS011;7917;50.818;6.972;2023-07-31T03:40:48;8.23;;;3.35;;
15635;SDS011;7917;50.818;6.972;2023-07-31T03:43:16;8.98;;;3.63;;
15635;SDS011;7917;50.818;6.972;2023-07-31T03:45:42;7.88;;;3.33;;
15635;SDS011;7917;50.818;6.972;2023-07-31T03:48:09;6.60;;;3.65;;
15635;SDS011;7917;50.818;6.972;2023-07-31T03:50:36;5.45;;;3.22;;
15635;SDS011;7917;50.818;6.972;2023-07-31T03:53:03;7.57;;;3.50;;
15635;SDS011;7917;50.818;6.972;2023-07-31T03:55:29;8.05;;;3.50;;
15635;SDS011;7917;50.818;6.972;2023-07-31T03:57:56;7.22;;;3.78;;
15635;SDS011;7917;50.818;6.972;2023-07-31T04:00:22;5.82;;;3.38;;
15635;SDS011;7917;50.818;6.972;2023-07-31T04:02:49;7.18;;;3.55;;
15635;SDS011;7917;50.818;6.972;2023-07-31T04:05:15;5.25;;;3.05;;
15635;SDS011;7917;50.818;6.972;2023-07-31T04:07:41;6.82;;;3.50;;
15635;SDS011;7917;50.818;6.972;2023-07-31T04:10:08;6.07;;;3.58;;
15635;SDS011;7917;50.818;6.972;2023-07-31T04:12:36;6.00;;;3.35;;
15635;SDS011;7917;50.818;6.972;2023-07-31T04:15:04;9.40;;;3.72;;
15635;SDS011;7917;50.818;6.972;2023-07-31T04:17:31;13.30;;;4.07;;
15635;SDS011;7917;50.818;6.972;2023-07-31T04:19:58;9.40;;;3.45;;
15635;SDS011;7917;50.818;6.972;2023-07-31T04:22:24;7.28;;;3.45;;
15635;SDS011;7917;50.818;6.972;2023-07-31T04:24:51;7.18;;;3.47;;
15635;SDS011;7917;50.818;6.972;2023-07-31T04:27:17;6.53;;;3.42;;
15635;SDS011;7917;50.818;6.972;2023-07-31T04:29:44;6.93;;;4.05;;
15635;SDS011;7917;50.818;6.972;2023-07-31T04:32:13;6.95;;;3.72;;
15635;SDS011;7917;50.818;6.972;2023-07-31T04:34:41;7.22;;;3.67;;
15635;SDS011;7917;50.818;6.972;2023-07-31T04:37:08;6.50;;;3.80;;
15635;SDS011;7917;50.818;6.972;2023-07-31T04:39:34;6.20;;;3.90;;
15635;SDS011;7917;50.818;6.972;2023-07-31T04:42:01;9.65;;;4.00;;
15635;SDS011;7917;50.818;6.972;2023-07-31T04:44:28;7.30;;;3.80;;
15635;SDS011;7917;50.818;6.972;2023-07-31T04:46:55;11.65;;;3.88;;
15635;SDS011;7917;50.818;6.972;2023-07-31T04:49:22;6.75;;;4.07;;
15635;SDS011;7917;50.818;6.972;2023-07-31T04:51:48;4.88;;;3.50;;
15635;SDS011;7917;50.818;6.972;2023-07-31T04:54:15;7.60;;;4.22;;
15635;SDS011;7917;50.818;6.972;2023-07-31T04:56:41;6.43;;;3.78;;
15635;SDS011;7917;50.818;6.972;2023-07-31T04:59:08;6.38;;;4.05;;
15635;SDS011;7917;50.818;6.972;2023-07-31T05:01:34;7.93;;;3.78;;
15635;SDS011;7917;50.818;6.972;2023-07-31T05:04:01;9.73;;;4.30;;
15635;SDS011;7917;50.818;6.972;2023-07-31T05:06:28;9.00;;;3.67;;
15635;SDS011;7917;50.818;6.972;2023-07-31T05:08:54;6.82;;;3.63;;
15635;SDS011;7917;50.818;6.972;2023-07-31T05:11:21;7.10;;;3.72;;
15635;SDS011;7917;50.818;6.972;2023-07-31T05:13:47;10.57;;;3.75;;
15635;SDS011;7917;50.818;6.972;2023-07-31T05:16:14;8.77;;;4.47;;
15635;SDS011;7917;50.818;6.972;2023-07-31T05:18:41;11.55;;;5.95;;
15635;SDS011;7917;50.818;6.972;2023-07-31T05:21:08;7.97;;;4.30;;
15635;SDS011;7917;50.818;6.972;2023-07-31T05:23:35;5.85;;;4.07;;
15635;SDS011;7917;50.818;6.972;2023-07-31T05:26:04;6.15;;;3.67;;
15635;SDS011;7917;50.818;6.972;2023-07-31T05:28:31;6.15;;;3.33;;
15635;SDS011;7917;50.818;6.972;2023-07-31T05:30:58;7.63;;;3.80;;
15635;SDS011;7917;50.818;6.972;2023-07-31T05:33:25;6.95;;;3.95;;
15635;SDS011;7917;50.818;6.972;2023-07-31T05:35:52;6.13;;;3.55;;
15635;SDS011;7917;50.818;6.972;2023-07-31T05:38:18;5.55;;;3.63;;
15635;SDS011;7917;50.818;6.972;2023-07-31T05:40:45;7.90;;;3.72;;
15635;SDS011;7917;50.818;6.972;2023-07-31T05:43:16;4.82;;;3.70;;
15635;SDS011;7917;50.818;6.972;2023-07-31T05:45:42;11.70;;;4.10;;
15635;SDS011;7917;50.818;6.972;2023-07-31T05:48:09;6.47;;;3.30;;
15635;SDS011;7917;50.818;6.972;2023-07-31T05:50:35;5.63;;;3.60;;
15635;SDS011;7917;50.818;6.972;2023-07-31T05:53:04;5.07;;;3.80;;
15635;SDS011;7917;50.818;6.972;2023-07-31T05:55:31;4.85;;;3.17;;
15635;SDS011;7917;50.818;6.972;2023-07-31T05:57:58;7.75;;;3.42;;
15635;SDS011;7917;50.818;6.972;2023-07-31T06:00:24;7.43;;;3.33;;
15635;SDS011;7917;50.818;6.972;2023-07-31T06:02:52;4.85;;;3.63;;
15635;SDS011;7917;50.818;6.972;2023-07-31T06:05:18;4.03;;;3.35;;
15635;SDS011;7917;50.818;6.972;2023-07-31T06:07:45;5.55;;;3.78;;
15635;SDS011;7917;50.818;6.972;2023-07-31T06:10:12;4.40;;;3.17;;
15635;SDS011;7917;50.818;6.972;2023-07-31T06:12:38;6.88;;;3.30;;
15635;SDS011;7917;50.818;6.972;2023-07-31T06:15:06;6.60;;;3.42;;
15635;SDS011;7917;50.818;6.972;2023-07-31T06:17:33;5.50;;;3.30;;
15635;SDS011;7917;50.818;6.972;2023-07-31T06:19:59;6.15;;;3.25;;
15635;SDS011;7917;50.818;6.972;2023-07-31T06:22:26;6.78;;;3.20;;
15635;SDS011;7917;50.818;6.972;2023-07-31T06:24:52;7.43;;;3.55;;
15635;SDS011;7917;50.818;6.972;2023-07-31T06:27:19;8.48;;;3.70;;
15635;SDS011;7917;50.818;6.972;2023-07-31T06:29:45;5.55;;;3.90;;
15635;SDS011;7917;50.818;6.972;2023-07-31T06:32:13;8.40;;;3.90;;
15635;SDS011;7917;50.818;6.972;2023-07-31T06:34:40;11.77;;;4.65;;
15635;SDS011;7917;50.818;6.972;2023-07-31T06:37:06;6.20;;;3.95;;
15635;SDS011;7917;50.818;6.972;2023-07-31T06:39:33;9.18;;;4.13;;
15635;SDS011;7917;50.818;6.972;2023-07-31T06:41:59;5.57;;;3.60;;
15635;SDS011;7917;50.818;6.972;2023-07-31T06:44:26;7.85;;;4.18;;
15635;SDS011;7917;50.818;6.972;2023-07-31T06:46:52;6.63;;;3.75;;
15635;SDS011;7917;50.818;6.972;2023-07-31T06:49:19;6.68;;;4.07;;
15635;SDS011;7917;50.818;6.972;2023-07-31T06:51:46;6.00;;;4.32;;
15635;SDS011;7917;50.818;6.972;2023-07-31T06:54:12;10.18;;;4.15;;
15635;SDS011;7917;50.818;6.972;2023-07-31T06:56:39;6.35;;;3.92;;
15635;SDS011;7917;50.818;6.972;2023-07-31T06:59:05;10.80;;;4.72;;
15635;SDS011;7917;50.818;6.972;2023-07-31T07:01:32;5.53;;;3.60;;
15635;SDS011;7917;50.818;6.972;2023-07-31T07:03:59;6.40;;;4.07;;
15635;SDS011;7917;50.818;6.972;2023-07-31T07:06:26;7.10;;;4.35;;
15635;SDS011;7917;50.818;6.972;2023-07-31T07:08:52;5.60;;;4.10;;
15635;SDS011;7917;50.818;6.972;2023-07-31T07:11:19;5.80;;;4.18;;
15635;SDS011;7917;50.818;6.972;2023-07-31T07:13:46;6.85;;;3.45;;
15635;SDS011;7917;50.818;6.972;2023-07-31T07:16:12;7.80;;;3.72;;
15635;SDS011;7917;50.818;6.972;2023-07-31T07:18:39;7.10;;;3.78;;
15635;SDS011;7917;50.818;6.972;2023-07-31T07:21:05;7.78;;;3.88;;
15635;SDS011;7917;50.818;6.972;2023-07-31T07:23:32;5.57;;;3.58;;
15635;SDS011;7917;50.818;6.972;2023-07-31T07:26:00;7.93;;;3.50;;
15635;SDS011;7917;50.818;6.972;2023-07-31T07:28:27;9.27;;;4.10;;
15635;SDS011;7917;50.818;6.972;2023-07-31T07:30:54;5.93;;;3.42;;
15635;SDS011;7917;50.818;6.972;2023-07-31T07:33:21;7.43;;;3.88;;
15635;SDS011;7917;50.818;6.972;2023-07-31T07:35:48;8.85;;;3.95;;
15635;SDS011;7917;50.818;6.972;2023-07-31T07:38:15;6.95;;;3.97;;
15635;SDS011;7917;50.818;6.972;2023-07-31T07:40:42;6.68;;;4.00;;
15635;SDS011;7917;50.818;6.972;2023-07-31T07:43:09;6.00;;;3.75;;
15635;SDS011;7917;50.818;6.972;2023-07-31T07:45:35;7.07;;;4.30;;
15635;SDS011;7917;50.818;6.972;2023-07-31T07:48:02;9.23;;;4.35;;
15635;SDS011;7917;50.818;6.972;2023-07-31T07:50:29;8.00;;;4.00;;
15635;SDS011;7917;50.818;6.972;2023-07-31T07:52:56;9.02;;;4.22;;
15635;SDS011;7917;50.818;6.972;2023-07-31T07:55:23;6.18;;;3.78;;
15635;SDS011;7917;50.818;6.972;2023-07-31T07:57:50;8.88;;;4.47;;
15635;SDS011;7917;50.818;6.972;2023-07-31T08:00:18;5.65;;;3.72;;
15635;SDS011;7917;50.818;6.972;2023-07-31T08:02:44;8.50;;;4.07;;
15635;SDS011;7917;50.818;6.972;2023-07-31T08:05:11;6.30;;;3.85;;
15635;SDS011;7917;50.818;6.972;2023-07-31T08:07:38;5.28;;;3.30;;
15635;SDS011;7917;50.818;6.972;2023-07-31T08:10:05;6.18;;;4.15;;
15635;SDS011;7917;50.818;6.972;2023-07-31T08:12:32;7.22;;;4.03;;
15635;SDS011;7917;50.818;6.972;2023-07-31T08:15:00;5.97;;;3.78;;
15635;SDS011;7917;50.818;6.972;2023-07-31T08:17:26;7.70;;;4.10;;
15635;SDS011;7917;50.818;6.972;2023-07-31T08:19:53;6.10;;;3.67;;
15635;SDS011;7917;50.818;6.972;2023-07-31T08:22:19;9.02;;;3.85;;
15635;SDS011;7917;50.818;6.972;2023-07-31T08:24:49;8.07;;;3.72;;
15635;SDS011;7917;50.818;6.972;2023-07-31T08:27:15;5.40;;;3.97;;
15635;SDS011;7917;50.818;6.972;2023-07-31T08:29:42;7.55;;;3.85;;
15635;SDS011;7917;50.818;6.972;2023-07-31T08:32:10;7.47;;;3.70;;
15635;SDS011;7917;50.818;6.972;2023-07-31T08:34:37;6.22;;;3.60;;
15635;SDS011;7917;50.818;6.972;2023-07-31T08:37:04;6.63;;;3.28;;
15635;SDS011;7917;50.818;6.972;2023-07-31T08:39:30;6.45;;;3.70;;
15635;SDS011;7917;50.818;6.972;2023-07-31T08:41:58;6.35;;;3.40;;
15635;SDS011;7917;50.818;6.972;2023-07-31T08:44:25;4.35;;;3.40;;
15635;SDS011;7917;50.818;6.972;2023-07-31T08:46:52;5.68;;;3.55;;
15635;SDS011;7917;50.818;6.972;2023-07-31T08:49:21;5.65;;;2.85;;
15635;SDS011;7917;50.818;6.972;2023-07-31T08:51:49;4.32;;;2.90;;
15635;SDS011;7917;50.818;6.972;2023-07-31T08:54:16;6.13;;;3.10;;
15635;SDS011;7917;50.818;6.972;2023-07-31T08:56:44;7.15;;;3.10;;
15635;SDS011;7917;50.818;6.972;2023-07-31T08:59:11;7.00;;;3.80;;
15635;SDS011;7917;50.818;6.972;2023-07-31T09:01:40;4.90;;;3.08;;
15635;SDS011;7917;50.818;6.972;2023-07-31T09:04:09;5.55;;;2.80;;
15635;SDS011;7917;50.818;6.972;2023-07-31T09:06:39;7.50;;;3.35;;
15635;SDS011;7917;50.818;6.972;2023-07-31T09:09:08;4.50;;;2.70;;
15635;SDS011;7917;50.818;6.972;2023-07-31T09:11:36;5.13;;;3.08;;
15635;SDS011;7917;50.818;6.972;2023-07-31T09:14:02;3.90;;;2.15;;
15635;SDS011;7917;50.818;6.972;2023-07-31T09:16:33;4.78;;;2.55;;
15635;SDS011;7917;50.818;6.972;2023-07-31T09:19:01;4.10;;;2.70;;
15635;SDS011;7917;50.818;6.972;2023-07-31T09:21:30;4.40;;;2.60;;
15635;SDS011;7917;50.818;6.972;2023-07-31T09:23:57;2.70;;;2.10;;
15635;SDS011;7917;50.818;6.972;2023-07-31T09:26:31;3.97;;;2.30;;
15635;SDS011;7917;50.818;6.972;2023-07-31T09:28:59;10.40;;;2.85;;
15635;SDS011;7917;50.818;6.972;2023-07-31T09:31:33;3.83;;;2.25;;
15635;SDS011;7917;50.818;6.972;2023-07-31T09:34:07;2.83;;;2.20;;
15635;SDS011;7917;50.818;6.972;2023-07-31T09:36:39;4.28;;;2.33;;
15635;SDS011;7917;50.818;6.972;2023-07-31T09:39:09;5.05;;;2.50;;
15635;SDS011;7917;50.818;6.972;2023-07-31T09:41:39;4.90;;;2.35;;
15635;SDS011;7917;50.818;6.972;2023-07-31T09:44:07;3.95;;;2.25;;
15635;SDS011;7917;50.818;6.972;2023-07-31T09:46:34;3.53;;;2.20;;
15635;SDS011;7917;50.818;6.972;2023-07-31T09:49:08;4.85;;;2.33;;
15635;SDS011;7917;50.818;6.972;2023-07-31T09:51:35;4.78;;;2.45;;
15635;SDS011;7917;50.818;6.972;2023-07-31T09:54:05;2.63;;;2.17;;
15635;SDS011;7917;50.818;6.972;2023-07-31T09:56:38;5.38;;;2.10;;
15635;SDS011;7917;50.818;6.972;2023-07-31T09:59:10;3.13;;;1.98;;
15635;SDS011;7917;50.818;6.972;2023-07-31T10:01:38;5.35;;;2.22;;
15635;SDS011;7917;50.818;6.972;2023-07-31T10:04:07;5.05;;;2.15;;
15635;SDS011;7917;50.818;6.972;2023-07-31T10:06:34;3.40;;;2.15;;
15635;SDS011;7917;50.818;6.972;2023-07-31T10:09:02;4.53;;;2.63;;
15635;SDS011;7917;50.818;6.972;2023-07-31T10:11:31;3.53;;;2.30;;
15635;SDS011;7917;50.818;6.972;2023-07-31T10:14:03;3.45;;;2.42;;
15635;SDS011;7917;50.818;6.972;2023-07-31T10:16:33;4.70;;;2.35;;
15635;SDS011;7917;50.818;6.972;2023-07-31T10:19:01;11.27;;;2.70;;
15635;SDS011;7917;50.818;6.972;2023-07-31T10:21:28;4.82;;;2.47;;
15635;SDS011;7917;50.818;6.972;2023-07-31T10:23:56;2.90;;;2.05;;
15635;SDS011;7917;50.818;6.972;2023-07-31T10:26:24;3.20;;;2.42;;
15635;SDS011;7917;50.818;6.972;2023-07-31T10:28:52;5.30;;;2.67;;
15635;SDS011;7917;50.818;6.972;2023-07-31T10:31:20;3.75;;;2.30;;
15635;SDS011;7917;50.818;6.972;2023-07-31T10:33:49;4.05;;;2.15;;
15635;SDS011;7917;50.818;6.972;2023-07-31T10:36:17;5.32;;;2.45;;
15635;SDS011;7917;50.818;6.972;2023-07-31T10:38:44;4.30;;;2.45;;
15635;SDS011;7917;50.818;6.972;2023-07-31T10:41:14;5.30;;;1.90;;
15635;SDS011;7917;50.818;6.972;2023-07-31T10:43:40;3.65;;;2.08;;
15635;SDS011;7917;50.818;6.972;2023-07-31T10:46:08;6.20;;;2.42;;
15635;SDS011;7917;50.818;6.972;2023-07-31T10:48:38;2.33;;;1.80;;
15635;SDS011;7917;50.818;6.972;2023-07-31T10:51:07;3.67;;;2.08;;
15635;SDS011;7917;50.818;6.972;2023-07-31T10:53:35;2.70;;;1.85;;
15635;SDS011;7917;50.818;6.972;2023-07-31T10:56:03;1.60;;;1.38;;
15635;SDS011;7917;50.818;6.972;2023-07-31T10:58:31;3.38;;;1.40;;
15635;SDS011;7917;50.818;6.972;2023-07-31T11:00:58;2.97;;;1.60;;
15635;SDS011;7917;50.818;6.972;2023-07-31T11:03:29;2.30;;;1.40;;
15635;SDS011;7917;50.818;6.972;2023-07-31T11:06:07;3.90;;;1.95;;
15635;SDS011;7917;50.818;6.972;2023-07-31T11:08:35;2.13;;;1.25;;
15635;SDS011;7917;50.818;6.972;2023-07-31T11:11:07;2.58;;;1.35;;
15635;SDS011;7917;50.818;6.972;2023-07-31T11:13:45;2.60;;;1.45;;
15635;SDS011;7917;50.818;6.972;2023-07-31T11:16:14;2.55;;;1.38;;
15635;SDS011;7917;50.818;6.972;2023-07-31T11:18:44;3.47;;;1.52;;
15635;SDS011;7917;50.818;6.972;2023-07-31T11:21:12;2.08;;;1.40;;
15635;SDS011;7917;50.818;6.972;2023-07-31T11:23:39;1.85;;;1.50;;
15635;SDS011;7917;50.818;6.972;2023-07-31T11:26:07;2.67;;;1.40;;
15635;SDS011;7917;50.818;6.972;2023-07-31T11:28:34;3.38;;;1.63;;
15635;SDS011;7917;50.818;6.972;2023-07-31T11:31:02;1.02;;;0.93;;
15635;SDS011;7917;50.818;6.972;2023-07-31T11:33:28;1.55;;;1.20;;
15635;SDS011;7917;50.818;6.972;2023-07-31T11:35:56;2.22;;;1.00;;
15635;SDS011;7917;50.818;6.972;2023-07-31T11:38:23;1.10;;;1.00;;
15635;SDS011;7917;50.818;6.972;2023-07-31T11:40:51;1.00;;;0.90;;
15635;SDS011;7917;50.818;6.972;2023-07-31T11:43:21;2.88;;;1.00;;
15635;SDS011;7917;50.818;6.972;2023-07-31T11:45:48;1.42;;;0.80;;
15635;SDS011;7917;50.818;6.972;2023-07-31T11:48:19;3.20;;;0.80;;
15635;SDS011;7917;50.818;6.972;2023-07-31T11:50:47;1.67;;;0.90;;
15635;SDS011;7917;50.818;6.972;2023-07-31T11:53:16;2.22;;;0.85;;
15635;SDS011;7917;50.818;6.972;2023-07-31T11:55:47;2.75;;;0.70;;
15635;SDS011;7917;50.818;6.972;2023-07-31T11:58:14;0.93;;;0.70;;
15635;SDS011;7917;50.818;6.972;2023-07-31T12:00:42;2.13;;;0.75;;
15635;SDS011;7917;50.818;6.972;2023-07-31T12:03:10;2.20;;;0.77;;
15635;SDS011;7917;50.818;6.972;2023-07-31T12:05:37;0.63;;;0.60;;
15635;SDS011;7917;50.818;6.972;2023-07-31T12:08:08;1.23;;;0.80;;
15635;SDS011;7917;50.818;6.972;2023-07-31T12:10:38;1.60;;;0.80;;
15635;SDS011;7917;50.818;6.972;2023-07-31T12:13:07;3.40;;;1.15;;
15635;SDS011;7917;50.818;6.972;2023-07-31T12:15:39;1.52;;;0.88;;
15635;SDS011;7917;50.818;6.972;2023-07-31T12:18:08;1.38;;;1.10;;
15635;SDS011;7917;50.818;6.972;2023-07-31T12:20:39;0.80;;;0.75;;
15635;SDS011;7917;50.818;6.972;2023-07-31T12:23:07;1.23;;;1.05;;
15635;SDS011;7917;50.818;6.972;2023-07-31T12:25:40;1.92;;;1.25;;
15635;SDS011;7917;50.818;6.972;2023-07-31T12:28:07;1.52;;;1.33;;
15635;SDS011;7917;50.818;6.972;2023-07-31T12:30:38;1.30;;;1.20;;
15635;SDS011;7917;50.818;6.972;2023-07-31T12:33:07;1.90;;;1.33;;
15635;SDS011;7917;50.818;6.972;2023-07-31T12:35:40;2.47;;;1.42;;
15635;SDS011;7917;50.818;6.972;2023-07-31T12:38:11;3.15;;;1.70;;
15635;SDS011;7917;50.818;6.972;2023-07-31T12:40:38;5.70;;;1.80;;
15635;SDS011;7917;50.818;6.972;2023-07-31T12:43:07;2.30;;;1.70;;
15635;SDS011;7917;50.818;6.972;2023-07-31T12:45:34;2.92;;;2.13;;
15635;SDS011;7917;50.818;6.972;2023-07-31T12:48:02;4.75;;;2.38;;
15635;SDS011;7917;50.818;6.972;2023-07-31T12:50:29;2.72;;;2.28;;
15635;SDS011;7917;50.818;6.972;2023-07-31T12:52:56;3.95;;;1.95;;
15635;SDS011;7917;50.818;6.972;2023-07-31T12:55:24;3.88;;;2.10;;
15635;SDS011;7917;50.818;6.972;2023-07-31T12:57:51;5.78;;;2.58;;
15635;SDS011;7917;50.818;6.972;2023-07-31T13:00:19;3.00;;;2.30;;
15635;SDS011;7917;50.818;6.972;2023-07-31T13:02:46;3.17;;;2.80;;
15635;SDS011;7917;50.818;6.972;2023-07-31T13:05:13;6.75;;;2.72;;
15635;SDS011;7917;50.818;6.972;2023-07-31T13:07:40;5.07;;;2.95;;
15635;SDS011;7917;50.818;6.972;2023-07-31T13:10:07;4.70;;;3.15;;
15635;SDS011;7917;50.818;6.972;2023-07-31T13:12:34;4.07;;;2.80;;
15635;SDS011;7917;50.818;6.972;2023-07-31T13:15:02;5.00;;;2.80;;
15635;SDS011;7917;50.818;6.972;2023-07-31T13:17:29;3.90;;;2.97;;
15635;SDS011;7917;50.818;6.972;2023-07-31T13:19:56;4.65;;;3.00;;
15635;SDS011;7917;50.818;6.972;2023-07-31T13:22:23;4.38;;;2.97;;
15635;SDS011;7917;50.818;6.972;2023-07-31T13:24:50;4.43;;;2.83;;
15635;SDS011;7917;50.818;6.972;2023-07-31T13:27:17;2.92;;;2.40;;
15635;SDS011;7917;50.818;6.972;2023-07-31T13:29:45;4.28;;;2.22;;
15635;SDS011;7917;50.818;6.972;2023-07-31T13:32:13;5.63;;;2.53;;
15635;SDS011;7917;50.818;6.972;2023-07-31T13:34:39;3.63;;;2.58;;
15635;SDS011;7917;50.818;6.972;2023-07-31T13:37:06;2.75;;;2.42;;
15635;SDS011;7917;50.818;6.972;2023-07-31T13:39:33;4.97;;;2.53;;
15635;SDS011;7917;50.818;6.972;2023-07-31T13:42:00;3.72;;;1.90;;
15635;SDS011;7917;50.818;6.972;2023-07-31T13:44:28;6.72;;;2.80;;
15635;SDS011;7917;50.818;6.972;2023-07-31T13:46:55;2.78;;;2.13;;
15635;SDS011;7917;50.818;6.972;2023-07-31T13:49:22;2.95;;;2.10;;
15635;SDS011;7917;50.818;6.972;2023-07-31T13:51:50;4.75;;;1.85;;
15635;SDS011;7917;50.818;6.972;2023-07-31T13:54:17;2.35;;;1.95;;
15635;SDS011;7917;50.818;6.972;2023-07-31T13:56:44;2.30;;;1.65;;
15635;SDS011;7917;50.818;6.972;2023-07-31T13:59:11;1.77;;;1.52;;
15635;SDS011;7917;50.818;6.972;2023-07-31T14:01:37;2.08;;;1.88;;
15635;SDS011;7917;50.818;6.972;2023-07-31T14:04:04;3.22;;;2.00;;
15635;SDS011;7917;50.818;6.972;2023-07-31T14:06:32;5.45;;;2.63;;
15635;SDS011;7917;50.818;6.972;2023-07-31T14:08:59;3.45;;;1.85;;
15635;SDS011;7917;50.818;6.972;2023-07-31T14:11:25;2.55;;;2.05;;
15635;SDS011;7917;50.818;6.972;2023-07-31T14:13:53;2.83;;;2.10;;
15635;SDS011;7917;50.818;6.972;2023-07-31T14:16:21;2.33;;;2.13;;
15635;SDS011;7917;50.818;6.972;2023-07-31T14:18:48;2.55;;;2.00;;
15635;SDS011;7917;50.818;6.972;2023-07-31T14:21:15;2.78;;;2.00;;
15635;SDS011;7917;50.818;6.972;2023-07-31T14:23:45;3.22;;;2.53;;
15635;SDS011;7917;50.818;6.972;2023-07-31T14:26:12;3.00;;;2.40;;
15635;SDS011;7917;50.818;6.972;2023-07-31T14:28:39;2.33;;;2.03;;
15635;SDS011;7917;50.818;6.972;2023-07-31T14:31:06;3.50;;;2.10;;
15635;SDS011;7917;50.818;6.972;2023-07-31T14:33:36;3.55;;;2.10;;
15635;SDS011;7917;50.818;6.972;2023-07-31T14:36:03;2.70;;;2.03;;
15635;SDS011;7917;50.818;6.972;2023-07-31T14:38:30;2.65;;;2.10;;
15635;SDS011;7917;50.818;6.972;2023-07-31T14:40:58;2.85;;;2.35;;
15635;SDS011;7917;50.818;6.972;2023-07-31T14:43:26;3.65;;;1.85;;
15635;SDS011;7917;50.818;6.972;2023-07-31T14:45:52;2.45;;;1.98;;
15635;SDS011;7917;50.818;6.972;2023-07-31T14:48:21;2.85;;;2.08;;
15635;SDS011;7917;50.818;6.972;2023-07-31T14:50:48;3.00;;;2.10;;
15635;SDS011;7917;50.818;6.972;2023-07-31T14:53:15;3.60;;;2.40;;
15635;SDS011;7917;50.818;6.972;2023-07-31T14:55:42;2.97;;;2.10;;
15635;SDS011;7917;50.818;6.972;2023-07-31T14:58:09;3.08;;;2.00;;
15635;SDS011;7917;50.818;6.972;2023-07-31T15:00:39;2.40;;;2.20;;
15635;SDS011;7917;50.818;6.972;2023-07-31T15:03:06;2.90;;;2.45;;
15635;SDS011;7917;50.818;6.972;2023-07-31T15:05:32;3.50;;;2.50;;